Time;durP1;ratioP1;P1;durP2;ratioP2;P2;SDS_P1;SDS_P2;PMS_P1;PMS_P2;Temp;Humidity;BMP_temperature;BMP_pressure;BME280_temperature;BME280_humidity;BME280_pressure;Samples;Min_cycle;Max_cycle;Signal;HPM_P1;HPM_P2
2024/02/27 00:12:03;;;;;;;45.90;22.50;;;;;;;10.00;95.43;99886.14;681747;1265;140768;-78
2024/02/27 00:27:09;;;;;;;48.80;23.80;;;;;;;10.11;95.47;99906.34;681888;1265;141160;-79
2024/02/27 00:42:13;;;;;;;62.10;29.80;;;;;;;10.05;95.59;99901.45;681835;1265;139070;-79
2024/02/27 00:57:16;;;;;;;45.10;24.70;;;;;;;9.90;95.75;99909.64;682041;1260;139352;-78
2024/02/27 01:12:19;;;;;;;80.60;37.50;;;;;;;9.79;96.37;99913.34;682165;1265;139139;-78
2024/02/27 01:27:25;;;;;;;56.10;27.60;;;;;;;9.66;96.73;99919.95;682298;1265;139052;-79
2024/02/27 01:42:28;;;;;;;54.70;26.30;;;;;;;9.50;97.07;99915.33;682050;1265;140064;-79
2024/02/27 01:57:34;;;;;;;72.00;32.00;;;;;;;9.48;98.13;99921.40;682257;1265;138940;-78
2024/02/27 02:12:37;;;;;;;48.10;27.00;;;;;;;9.51;98.38;99927.28;682102;1265;140308;-79
2024/02/27 02:27:45;;;;;;;50.70;25.80;;;;;;;9.54;98.25;99934.17;682030;1265;138689;-78
2024/02/27 02:42:49;;;;;;;;;;;;;;;9.51;98.68;99937.23;681994;1265;139158;-79
2024/02/27 02:57:52;;;;;;;49.00;25.10;;;;;;;9.61;99.86;99922.92;681849;1268;125052;-79
2024/02/27 03:12:56;;;;;;;51.30;23.40;;;;;;;9.72;99.48;99922.88;682062;1265;140847;-79
2024/02/27 03:28:00;;;;;;;48.20;23.70;;;;;;;9.92;99.95;99940.13;681830;1265;138909;-80
2024/02/27 03:43:04;;;;;;;51.90;25.10;;;;;;;10.07;100.00;99954.21;681876;1265;139165;-80
2024/02/27 03:58:08;;;;;;;47.70;26.30;;;;;;;10.23;100.00;99966.19;681706;1265;186371;-79
2024/02/27 04:13:12;;;;;;;53.20;25.30;;;;;;;10.30;100.00;99968.70;681972;1266;139394;-78
2024/02/27 04:28:17;;;;;;;70.40;36.20;;;;;;;10.35;99.96;99970.36;681829;1265;139441;-78
2024/02/27 04:43:20;;;;;;;136.00;55.30;;;;;;;10.35;100.00;99973.67;681869;1267;140343;-80
2024/02/27 04:58:24;;;;;;;86.10;42.50;;;;;;;10.39;99.99;99963.35;681840;1266;139470;-79
2024/02/27 05:13:28;;;;;;;79.20;38.10;;;;;;;10.39;100.00;99969.38;681800;1267;138924;-79
2024/02/27 05:28:31;;;;;;;97.30;44.20;;;;;;;10.44;100.00;99975.12;681815;1267;140634;-79
2024/02/27 05:43:35;;;;;;;97.20;44.10;;;;;;;10.55;100.00;99985.85;681743;1264;140412;-79
2024/02/27 05:58:38;;;;;;;110.20;52.50;;;;;;;10.62;100.00;100009.91;681842;1266;140098;-80
2024/02/27 06:13:43;;;;;;;101.40;48.00;;;;;;;10.64;100.00;100017.54;681884;1260;140051;-80
2024/02/27 06:28:47;;;;;;;413.00;145.70;;;;;;;10.70;100.00;100029.40;681700;1266;140619;-79
2024/02/27 06:43:51;;;;;;;136.00;56.50;;;;;;;10.83;100.00;100033.66;681858;1267;139564;-79
2024/02/27 06:58:55;;;;;;;127.80;54.30;;;;;;;10.95;100.00;100030.42;681822;1262;140138;-80
2024/02/27 07:13:59;;;;;;;205.00;82.70;;;;;;;11.06;100.00;100031.82;682021;1265;139733;-79
2024/02/27 07:29:03;;;;;;;138.20;53.00;;;;;;;11.22;100.00;100044.57;681678;1264;140723;-78
2024/02/27 07:44:06;;;;;;;226.70;73.50;;;;;;;11.46;100.00;100042.76;681905;1265;139447;-79
2024/02/27 07:59:10;;;;;;;137.50;53.10;;;;;;;11.64;100.00;100050.70;681713;1263;139564;-80
2024/02/27 08:14:13;;;;;;;109.70;42.60;;;;;;;11.97;100.00;100070.02;681916;1264;139695;-79
2024/02/27 08:29:18;;;;;;;113.80;51.70;;;;;;;12.32;100.00;100082.09;681753;1260;140698;-78
2024/02/27 08:44:21;;;;;;;114.70;51.20;;;;;;;12.76;100.00;100094.89;681974;1262;139562;-79
2024/02/27 08:59:26;;;;;;;103.00;52.90;;;;;;;13.23;100.00;100097.03;681736;1261;140619;-79
2024/02/27 09:14:30;;;;;;;82.70;45.10;;;;;;;14.57;99.76;100101.81;681955;1265;139835;-80
2024/02/27 09:29:34;;;;;;;78.50;42.80;;;;;;;15.25;96.55;100103.89;681782;1262;139529;-78
2024/02/27 09:44:39;;;;;;;65.40;34.40;;;;;;;15.55;93.41;100113.02;682072;1262;139790;-78
2024/02/27 09:59:44;;;;;;;92.30;43.10;;;;;;;15.42;93.52;100120.60;682120;1265;141035;-78
2024/02/27 10:14:48;;;;;;;76.50;43.00;;;;;;;17.30;93.22;100134.46;682286;1262;139435;-79
2024/02/27 10:29:53;;;;;;;63.20;35.70;;;;;;;18.35;89.80;100135.52;681951;1265;139783;-79
2024/02/27 10:44:57;;;;;;;50.20;32.20;;;;;;;20.42;85.78;100131.59;682053;1262;139038;-77
2024/02/27 11:00:03;;;;;;;45.70;29.00;;;;;;;20.90;79.70;100130.92;681929;1265;138798;-80
2024/02/27 11:15:09;;;;;;;62.80;38.30;;;;;;;20.73;75.84;100136.56;681802;1265;138367;-80
2024/02/27 11:30:16;;;;;;;77.40;46.90;;;;;;;20.57;73.69;100139.14;681780;1262;139340;-80
2024/02/27 11:45:27;;;;;;;55.30;33.60;;;;;;;20.48;72.64;100139.38;681914;1266;139131;-79
2024/02/27 12:00:31;;;;;;;54.10;32.60;;;;;;;20.60;72.67;100143.60;681815;1263;139176;-79
2024/02/27 12:15:36;;;;;;;112.90;61.30;;;;;;;19.50;73.90;100154.21;681643;1265;138494;-79
2024/02/27 12:30:45;;;;;;;62.10;36.30;;;;;;;19.04;75.39;100156.34;681699;1266;138821;-80
2024/02/27 12:45:51;;;;;;;64.50;36.00;;;;;;;18.23;75.41;100155.89;681741;1265;139823;-80
2024/02/27 13:00:57;;;;;;;58.60;33.80;;;;;;;17.80;76.46;100162.70;681833;1265;140108;-79
2024/02/27 13:16:03;;;;;;;97.30;46.80;;;;;;;17.14;77.42;100168.69;681500;1264;140760;-76
2024/02/27 13:31:09;;;;;;;84.10;43.50;;;;;;;16.57;78.61;100168.29;681738;1262;139934;-78
2024/02/27 13:46:13;;;;;;;81.60;40.90;;;;;;;16.52;79.31;100170.38;681546;1265;139294;-76
2024/02/27 14:01:18;;;;;;;68.50;36.70;;;;;;;16.13;79.62;100173.58;681664;1265;139211;-76
2024/02/27 14:16:21;;;;;;;68.30;35.40;;;;;;;15.70;79.91;100187.20;681806;1264;140631;-76
2024/02/27 14:31:25;;;;;;;67.70;33.40;;;;;;;16.17;77.17;100190.77;681611;1264;140147;-79
2024/02/27 14:46:29;;;;;;;110.10;56.40;;;;;;;15.92;77.37;100207.84;681134;1266;140647;-79
2024/02/27 15:01:34;;;;;;;63.10;31.00;;;;;;;15.69;77.31;100212.84;681559;1265;142145;-78
2024/02/27 15:16:41;;;;;;;123.70;59.70;;;;;;;15.29;78.02;100223.91;681352;1265;140394;-78
2024/02/27 15:31:45;;;;;;;88.50;41.50;;;;;;;14.89;78.57;100228.77;681564;1267;139861;-79
2024/02/27 15:46:49;;;;;;;76.60;40.10;;;;;;;14.57;79.29;100238.05;681411;1267;191939;-79
2024/02/27 16:01:55;;;;;;;91.00;43.00;;;;;;;14.21;80.09;100242.54;681612;1266;141671;-79
2024/02/27 16:17:15;;;;;;;125.90;57.30;;;;;;;13.96;80.60;100259.13;681584;1265;140790;-79
2024/02/27 16:32:19;;;;;;;113.30;50.20;;;;;;;13.59;82.10;100275.76;681785;1265;139621;-78
2024/02/27 16:47:25;;;;;;;165.80;72.80;;;;;;;13.42;82.21;100284.31;681463;1267;140117;-78
2024/02/27 17:02:29;;;;;;;173.40;113.90;;;;;;;12.85;85.13;100304.55;681480;1267;139241;-78
2024/02/27 17:17:33;;;;;;;126.40;69.00;;;;;;;12.27;88.80;100310.16;681661;1265;139130;-78
2024/02/27 17:32:38;;;;;;;108.20;50.90;;;;;;;12.10;89.86;100325.50;681890;1267;139998;-78
2024/02/27 17:47:42;;;;;;;87.60;38.90;;;;;;;12.03;90.58;100337.62;681805;1266;140755;-77
2024/02/27 18:02:46;;;;;;;123.00;50.60;;;;;;;11.95;91.24;100339.20;681850;1265;141709;-77
2024/02/27 18:17:50;;;;;;;183.50;73.50;;;;;;;11.91;91.80;100343.10;681305;1266;139844;-78
2024/02/27 18:32:56;;;;;;;121.10;48.60;;;;;;;11.87;91.95;100337.59;681730;1268;139670;-78
2024/02/27 18:48:00;;;;;;;134.90;52.30;;;;;;;11.76;92.83;100344.25;681485;1268;139162;-78
2024/02/27 19:03:04;;;;;;;125.30;50.00;;;;;;;11.71;93.35;100344.03;681675;1266;140170;-79
2024/02/27 19:18:08;;;;;;;129.00;49.80;;;;;;;11.64;93.70;100355.71;681396;1267;139546;-79
2024/02/27 19:33:13;;;;;;;129.30;48.80;;;;;;;11.56;94.17;100348.04;681795;1266;140030;-78
2024/02/27 19:48:17;;;;;;;102.20;37.60;;;;;;;11.54;93.79;100354.33;681239;1266;139447;-78
2024/02/27 20:03:22;;;;;;;117.80;41.90;;;;;;;11.44;94.52;100360.13;681649;1265;139541;-79
2024/02/27 20:18:26;;;;;;;166.40;54.20;;;;;;;11.41;94.52;100372.77;681437;1273;139234;-78
2024/02/27 20:33:30;;;;;;;113.50;37.00;;;;;;;11.25;94.46;100376.23;681494;1267;138931;-79
2024/02/27 20:48:35;;;;;;;94.30;32.30;;;;;;;11.09;94.70;100377.37;681202;1266;139189;-79
2024/02/27 21:03:39;;;;;;;86.10;31.40;;;;;;;10.92;95.22;100388.91;681244;1265;139076;-78
2024/02/27 21:18:43;;;;;;;106.10;36.20;;;;;;;10.81;95.51;100405.23;681178;1264;139789;-78
2024/02/27 21:33:47;;;;;;;114.50;35.30;;;;;;;10.79;95.66;100406.28;681590;1261;139868;-79
2024/02/27 21:48:51;;;;;;;102.40;35.40;;;;;;;10.75;95.76;100417.13;681606;1266;139079;-78
2024/02/27 22:03:55;;;;;;;111.90;37.40;;;;;;;10.71;95.81;100421.36;681350;1264;139935;-77
2024/02/27 22:18:59;;;;;;;73.00;28.30;;;;;;;10.67;96.13;100423.98;681321;1267;140100;-78
2024/02/27 22:34:04;;;;;;;106.20;35.10;;;;;;;10.60;95.78;100427.31;681448;1266;139456;-78
2024/02/27 22:49:14;;;;;;;87.80;31.60;;;;;;;10.48;96.22;100426.77;681278;1264;140662;-77
2024/02/27 23:04:19;;;;;;;145.30;44.50;;;;;;;10.39;96.63;100418.95;681296;1263;139211;-77
2024/02/27 23:19:25;;;;;;;89.20;30.70;;;;;;;10.36;96.77;100421.13;681372;1267;141621;-78
2024/02/27 23:34:28;;;;;;;88.30;31.20;;;;;;;10.32;96.66;100426.36;681396;1267;139382;-78
2024/02/27 23:49:31;;;;;;;80.10;27.40;;;;;;;10.22;96.35;100422.14;681352;1266;139174;-78
